createdAt,value
2022-11-24T00:00:06.970Z,3.71
2022-11-24T00:05:09.642Z,3.89
2022-11-24T00:10:13.581Z,4.06
2022-11-24T00:15:16.316Z,4.38
2022-11-24T00:20:18.888Z,4.20
2022-11-24T00:25:22.839Z,4.41
2022-11-24T00:30:25.485Z,4.42
2022-11-24T00:35:28.120Z,4.64
2022-11-24T00:40:35.010Z,4.31
2022-11-24T00:45:37.911Z,4.70
2022-11-24T00:50:40.847Z,4.79
2022-11-24T00:55:44.804Z,4.83
2022-11-24T01:00:47.945Z,4.91
2022-11-24T01:05:50.571Z,4.93
2022-11-24T01:10:54.519Z,5.15
2022-11-24T01:15:57.180Z,5.23
2022-11-24T01:21:00.002Z,4.93
2022-11-24T01:26:06.638Z,4.65
2022-11-24T01:31:09.959Z,3.95
2022-11-24T01:36:12.869Z,3.72
2022-11-24T01:41:18.865Z,4.74
2022-11-24T01:46:25.139Z,5.05
2022-11-24T01:51:32.579Z,5.07
2022-11-24T01:56:40.605Z,5.19
2022-11-24T02:01:43.295Z,5.22
2022-11-24T02:06:47.765Z,5.26
2022-11-24T02:11:54.747Z,5.32
2022-11-24T02:16:57.408Z,5.33
2022-11-24T02:22:00.100Z,5.22
2022-11-24T02:27:04.812Z,4.92
2022-11-24T02:32:09.822Z,5.13
2022-11-24T02:37:12.466Z,5.28
2022-11-24T02:42:16.551Z,5.03
2022-11-24T02:47:19.169Z,4.71
2022-11-24T02:52:21.740Z,4.34
2022-11-24T02:57:25.913Z,4.21
2022-11-24T03:02:30.450Z,4.50
2022-11-24T03:07:33.015Z,4.97
2022-11-24T03:12:37.041Z,5.33
2022-11-24T03:17:39.716Z,5.38
2022-11-24T03:22:42.586Z,5.73
2022-11-24T03:27:46.956Z,5.67
2022-11-24T03:32:51.865Z,5.52
2022-11-24T03:37:54.496Z,5.36
2022-11-24T03:42:58.453Z,5.42
2022-11-24T03:48:01.095Z,5.52
2022-11-24T03:53:03.846Z,5.93
2022-11-24T03:58:07.746Z,5.75
2022-11-24T04:03:10.455Z,5.78
2022-11-24T04:08:13.192Z,6.25
2022-11-24T04:13:18.683Z,6.14
2022-11-24T04:18:21.939Z,6.13
2022-11-24T04:23:24.493Z,6.00
2022-11-24T04:28:28.414Z,6.14
2022-11-24T04:33:31.188Z,4.93
2022-11-24T04:39:23.203Z,5.62
2022-11-24T04:43:57.619Z,6.13
2022-11-24T04:49:00.193Z,6.20
2022-11-24T04:54:03.961Z,5.98
2022-11-24T04:59:08.574Z,6.07
2022-11-24T05:04:12.301Z,5.81
2022-11-24T05:09:16.748Z,5.80
2022-11-24T05:14:20.671Z,6.51
2022-11-24T05:19:25.354Z,6.30
2022-11-24T05:24:29.876Z,6.76
2022-11-24T05:29:33.764Z,6.94
2022-11-24T05:34:36.526Z,7.19
2022-11-24T05:39:39.327Z,7.14
2022-11-24T05:44:43.196Z,5.95
2022-11-24T05:49:45.898Z,6.33
2022-11-24T05:54:48.502Z,6.74
2022-11-24T05:59:52.405Z,6.59
2022-11-24T06:04:55.244Z,6.50
2022-11-24T06:09:57.832Z,6.00
2022-11-24T06:15:01.737Z,5.74
2022-11-24T06:20:05.167Z,5.54
2022-11-24T06:25:09.472Z,5.68
2022-11-24T06:30:15.795Z,5.96
2022-11-24T06:35:18.646Z,5.33
2022-11-24T06:40:21.222Z,5.96
2022-11-24T06:45:25.507Z,5.90
2022-11-24T06:50:33.300Z,6.35
2022-11-24T06:55:36.302Z,6.17
2022-11-24T07:00:40.441Z,6.59
2022-11-24T07:05:43.254Z,6.47
2022-11-24T07:10:45.980Z,6.35
2022-11-24T07:15:49.910Z,6.30
2022-11-24T07:20:52.502Z,6.71
2022-11-24T07:25:55.269Z,6.32
2022-11-24T07:31:00.044Z,6.54
2022-11-24T07:36:03.832Z,6.14
2022-11-24T07:41:08.941Z,6.14
2022-11-24T07:46:15.118Z,6.19
2022-11-24T07:51:18.026Z,6.62
2022-11-24T07:56:20.608Z,6.37
2022-11-24T08:01:24.832Z,6.70
2022-11-24T08:06:38.743Z,7.02
2022-11-24T08:11:43.381Z,7.04
2022-11-24T08:16:47.422Z,7.58
2022-11-24T08:21:50.214Z,7.55
2022-11-24T08:26:52.777Z,7.68
2022-11-24T08:31:58.236Z,8.14
2022-11-24T08:37:00.951Z,8.64
2022-11-24T08:42:03.570Z,8.71
2022-11-24T08:47:07.512Z,9.16
2022-11-24T08:52:10.318Z,9.57
2022-11-24T08:57:20.221Z,9.43
2022-11-24T09:02:25.692Z,9.52
2022-11-24T09:07:28.338Z,10.05
2022-11-24T09:12:30.980Z,9.69
2022-11-24T09:17:35.248Z,9.87
2022-11-24T09:22:38.203Z,10.74
2022-11-24T09:27:43.788Z,11.27
2022-11-24T09:32:47.721Z,11.11
2022-11-24T09:37:51.215Z,10.98
2022-11-24T09:43:02.052Z,11.08
2022-11-24T09:48:13.507Z,11.07
2022-11-24T09:53:20.445Z,11.22
2022-11-24T09:58:36.353Z,11.69
2022-11-24T10:03:44.035Z,12.88
2022-11-24T10:09:07.713Z,14.35
2022-11-24T10:14:42.819Z,16.21
2022-11-24T10:19:50.936Z,16.89
2022-11-24T10:25:10.517Z,17.79
2022-11-24T10:30:18.656Z,17.18
2022-11-24T10:35:27.338Z,13.37
2022-11-24T10:46:01.841Z,12.77
2022-11-24T10:51:29.525Z,12.70
2022-11-24T10:56:40.170Z,11.93
2022-11-24T11:01:44.908Z,11.66
2022-11-24T11:06:49.007Z,11.89
2022-11-24T11:11:54.771Z,13.48
2022-11-24T11:16:58.817Z,14.51
2022-11-24T11:22:07.264Z,14.66
2022-11-24T11:27:21.869Z,16.90
2022-11-24T11:37:50.678Z,18.36
2022-11-24T11:43:04.535Z,18.91
2022-11-24T11:48:23.768Z,17.05
2022-11-24T11:53:33.912Z,17.98
2022-11-24T11:58:56.700Z,19.03
2022-11-24T12:04:13.467Z,20.24
2022-11-24T12:09:33.930Z,18.00
2022-11-24T12:14:48.841Z,16.68
2022-11-24T12:20:04.324Z,15.70
2022-11-24T12:25:23.506Z,17.38
2022-11-24T12:30:29.603Z,18.72
2022-11-24T12:35:39.673Z,19.96
2022-11-24T12:41:18.023Z,18.63
2022-11-24T12:46:26.782Z,17.23
2022-11-24T12:51:33.039Z,15.06
2022-11-24T12:56:43.487Z,14.26
2022-11-24T13:01:54.436Z,12.82
2022-11-24T13:07:02.214Z,12.80
2022-11-24T13:12:14.247Z,12.38
2022-11-24T13:17:36.330Z,12.53
2022-11-24T13:22:54.774Z,12.85
2022-11-24T13:27:59.700Z,12.84
2022-11-24T13:33:21.647Z,12.86
2022-11-24T13:38:51.980Z,12.81
2022-11-24T13:44:24.429Z,12.66
2022-11-24T13:49:39.031Z,12.15
2022-11-24T13:54:42.207Z,12.53
2022-11-24T13:59:46.192Z,12.45
2022-11-24T14:04:49.104Z,12.14
2022-11-24T14:09:53.035Z,11.91
2022-11-24T14:15:21.879Z,12.58
2022-11-24T14:20:26.418Z,12.74
2022-11-24T14:25:30.850Z,12.39
2022-11-24T14:30:34.828Z,12.13
2022-11-24T14:35:45.264Z,12.20
2022-11-24T14:40:51.668Z,12.16
2022-11-24T14:45:58.586Z,12.07
2022-11-24T14:51:13.819Z,11.82
2022-11-24T14:56:27.939Z,11.60
2022-11-24T15:01:36.075Z,11.58
2022-11-24T15:06:39.250Z,11.48
2022-11-24T15:11:41.969Z,10.94
2022-11-24T15:16:46.111Z,10.91
2022-11-24T15:21:48.725Z,10.67
2022-11-24T15:26:51.334Z,10.90
2022-11-24T15:31:55.309Z,10.76
2022-11-24T15:36:57.876Z,10.65
2022-11-24T15:42:00.620Z,10.92
2022-11-24T15:47:06.600Z,10.84
2022-11-24T15:52:09.229Z,10.65
2022-11-24T15:57:11.907Z,10.50
2022-11-24T16:02:15.913Z,10.06
2022-11-24T16:07:21.047Z,10.44
2022-11-24T16:12:24.776Z,10.45
2022-11-24T16:17:28.706Z,10.26
2022-11-24T16:22:31.244Z,9.28
2022-11-24T16:27:33.829Z,9.62
2022-11-24T16:32:37.719Z,8.48
2022-11-24T16:37:40.287Z,8.37
2022-11-24T16:42:42.861Z,8.33
2022-11-24T16:47:46.842Z,8.86
2022-11-24T16:52:51.527Z,9.49
2022-11-24T16:57:54.318Z,9.52
2022-11-24T17:02:58.225Z,9.37
2022-11-24T17:08:05.707Z,9.19
2022-11-24T17:13:08.555Z,9.02
2022-11-24T17:18:24.436Z,9.44
2022-11-24T17:23:28.082Z,9.26
2022-11-24T17:28:30.839Z,9.36
2022-11-24T17:33:36.545Z,8.00
2022-11-24T17:38:39.090Z,7.75
2022-11-24T17:43:41.954Z,7.67
2022-11-24T17:48:46.712Z,7.64
2022-11-24T17:53:50.988Z,7.43
2022-11-24T17:58:55.110Z,7.74
2022-11-24T18:03:59.244Z,8.62
2022-11-24T18:09:01.793Z,8.26
2022-11-24T18:14:05.233Z,7.54
2022-11-24T18:19:11.002Z,7.59
2022-11-24T18:24:17.488Z,7.87
2022-11-24T18:29:23.663Z,8.16
2022-11-24T18:34:27.525Z,8.07
2022-11-24T18:39:30.507Z,7.85
2022-11-24T18:44:33.386Z,8.17
2022-11-24T18:49:37.651Z,8.01
2022-11-24T18:54:40.301Z,8.00
2022-11-24T18:59:42.824Z,8.50
2022-11-24T19:04:46.703Z,8.13
2022-11-24T19:09:49.304Z,7.65
2022-11-24T19:14:51.930Z,7.89
2022-11-24T19:19:55.902Z,8.46
2022-11-24T19:24:58.445Z,8.14
2022-11-24T19:30:00.972Z,9.02
2022-11-24T19:35:05.577Z,9.14
2022-11-24T19:40:08.841Z,9.25
2022-11-24T19:45:12.161Z,9.35
2022-11-24T19:50:16.218Z,8.10
2022-11-24T19:55:18.795Z,8.39
2022-11-24T20:00:21.865Z,9.03
2022-11-24T20:05:25.757Z,9.48
2022-11-24T20:10:28.415Z,9.65
2022-11-24T20:15:33.360Z,9.72
2022-11-24T20:20:37.258Z,8.87
2022-11-24T20:25:39.834Z,7.26
2022-11-24T20:30:42.510Z,7.26
2022-11-24T20:35:46.499Z,6.98
2022-11-24T20:40:49.076Z,7.18
2022-11-24T20:45:51.692Z,6.81
2022-11-24T20:50:55.731Z,6.41
2022-11-24T20:56:05.859Z,6.11
2022-11-24T21:01:11.517Z,6.13
2022-11-24T21:06:15.847Z,6.30
2022-11-24T21:11:20.901Z,6.16
2022-11-24T21:16:26.081Z,6.12
2022-11-24T21:21:34.009Z,6.26
2022-11-24T21:26:37.880Z,6.23
2022-11-24T21:31:40.845Z,6.38
2022-11-24T21:36:45.480Z,6.70
2022-11-24T21:41:48.193Z,6.66
2022-11-24T21:46:55.728Z,6.78
2022-11-24T21:52:00.069Z,7.34
2022-11-24T21:57:02.611Z,7.82
2022-11-24T22:02:08.909Z,8.41
2022-11-24T22:07:16.838Z,8.26
2022-11-24T22:12:19.493Z,6.40
2022-11-24T22:17:22.134Z,6.39
2022-11-24T22:22:26.282Z,6.01
2022-11-24T22:27:28.839Z,6.16
2022-11-24T22:32:31.425Z,6.26
2022-11-24T22:37:37.004Z,6.46
2022-11-24T22:42:39.655Z,6.82
2022-11-24T22:47:42.193Z,6.98
2022-11-24T22:52:50.918Z,7.62
2022-11-24T22:57:56.952Z,6.90
2022-11-24T23:02:59.833Z,7.00
2022-11-24T23:08:03.799Z,7.87
2022-11-24T23:13:09.345Z,8.25
2022-11-24T23:18:11.953Z,8.17
2022-11-24T23:23:15.818Z,8.12
2022-11-24T23:28:18.404Z,7.82
2022-11-24T23:33:20.973Z,6.66
2022-11-24T23:38:30.053Z,5.97
2022-11-24T23:43:32.712Z,5.33
2022-11-24T23:48:37.572Z,5.48
2022-11-24T23:53:42.316Z,6.09
2022-11-24T23:58:45.410Z,5.74
